sensor_id;sensor_type;location;lat;lon;timestamp;temperature;humidity
32446;DHT22;18899;50.748;7.102;2024-02-15T00:01:21;12.70;99.90
32446;DHT22;18899;50.748;7.102;2024-02-15T00:03:47;12.80;99.90
32446;DHT22;18899;50.748;7.102;2024-02-15T00:06:13;12.80;99.90
32446;DHT22;18899;50.748;7.102;2024-02-15T00:08:39;12.80;99.90
32446;DHT22;18899;50.748;7.102;2024-02-15T00:11:05;12.80;99.90
32446;DHT22;18899;50.748;7.102;2024-02-15T00:13:30;12.80;99.90
32446;DHT22;18899;50.748;7.102;2024-02-15T00:15:58;12.90;99.90
32446;DHT22;18899;50.748;7.102;2024-02-15T00:18:25;12.90;99.90
32446;DHT22;18899;50.748;7.102;2024-02-15T00:20:50;12.90;99.90
32446;DHT22;18899;50.748;7.102;2024-02-15T00:23:16;13.00;99.90
32446;DHT22;18899;50.748;7.102;2024-02-15T00:25:42;13.10;99.90
32446;DHT22;18899;50.748;7.102;2024-02-15T00:28:10;13.20;99.90
32446;DHT22;18899;50.748;7.102;2024-02-15T00:30:36;13.20;99.90
32446;DHT22;18899;50.748;7.102;2024-02-15T00:33:02;13.20;99.90
32446;DHT22;18899;50.748;7.102;2024-02-15T00:35:28;13.40;99.90
32446;DHT22;18899;50.748;7.102;2024-02-15T00:37:55;13.50;99.90
32446;DHT22;18899;50.748;7.102;2024-02-15T00:40:20;13.60;99.90
32446;DHT22;18899;50.748;7.102;2024-02-15T00:42:46;13.60;99.90
32446;DHT22;18899;50.748;7.102;2024-02-15T00:45:12;13.60;99.90
32446;DHT22;18899;50.748;7.102;2024-02-15T00:47:37;13.60;99.90
32446;DHT22;18899;50.748;7.102;2024-02-15T00:50:04;13.60;99.90
32446;DHT22;18899;50.748;7.102;2024-02-15T00:52:30;13.70;99.90
32446;DHT22;18899;50.748;7.102;2024-02-15T00:54:56;13.60;99.90
32446;DHT22;18899;50.748;7.102;2024-02-15T00:57:22;13.60;99.90
32446;DHT22;18899;50.748;7.102;2024-02-15T00:59:47;13.40;99.90
32446;DHT22;18899;50.748;7.102;2024-02-15T01:02:13;13.30;99.90
32446;DHT22;18899;50.748;7.102;2024-02-15T01:04:39;13.20;99.90
32446;DHT22;18899;50.748;7.102;2024-02-15T01:07:04;13.10;99.90
32446;DHT22;18899;50.748;7.102;2024-02-15T01:09:30;13.00;99.90
32446;DHT22;18899;50.748;7.102;2024-02-15T01:11:56;13.00;99.90
32446;DHT22;18899;50.748;7.102;2024-02-15T01:14:21;12.90;99.90
32446;DHT22;18899;50.748;7.102;2024-02-15T01:16:47;12.90;99.90
32446;DHT22;18899;50.748;7.102;2024-02-15T01:19:13;12.90;99.90
32446;DHT22;18899;50.748;7.102;2024-02-15T01:21:38;12.90;99.90
32446;DHT22;18899;50.748;7.102;2024-02-15T01:24:04;12.90;99.90
32446;DHT22;18899;50.748;7.102;2024-02-15T01:26:32;12.90;99.90
32446;DHT22;18899;50.748;7.102;2024-02-15T01:28:57;13.00;99.90
32446;DHT22;18899;50.748;7.102;2024-02-15T01:31:23;13.00;99.90
32446;DHT22;18899;50.748;7.102;2024-02-15T01:33:48;13.00;99.90
32446;DHT22;18899;50.748;7.102;2024-02-15T01:36:15;13.00;99.90
32446;DHT22;18899;50.748;7.102;2024-02-15T01:38:41;13.00;99.90
32446;DHT22;18899;50.748;7.102;2024-02-15T01:41:08;13.00;99.90
32446;DHT22;18899;50.748;7.102;2024-02-15T01:43:34;12.90;99.90
32446;DHT22;18899;50.748;7.102;2024-02-15T01:46:00;12.90;99.90
32446;DHT22;18899;50.748;7.102;2024-02-15T01:48:29;12.90;99.90
32446;DHT22;18899;50.748;7.102;2024-02-15T01:50:56;12.90;99.90
32446;DHT22;18899;50.748;7.102;2024-02-15T01:53:22;12.90;99.90
32446;DHT22;18899;50.748;7.102;2024-02-15T01:55:48;12.80;99.90
32446;DHT22;18899;50.748;7.102;2024-02-15T01:58:14;12.90;99.90
32446;DHT22;18899;50.748;7.102;2024-02-15T02:00:40;12.90;99.90
32446;DHT22;18899;50.748;7.102;2024-02-15T02:03:06;12.80;99.90
32446;DHT22;18899;50.748;7.102;2024-02-15T02:05:31;12.80;99.90
32446;DHT22;18899;50.748;7.102;2024-02-15T02:07:57;12.80;99.90
32446;DHT22;18899;50.748;7.102;2024-02-15T02:10:25;12.80;99.90
32446;DHT22;18899;50.748;7.102;2024-02-15T02:12:52;12.70;99.90
32446;DHT22;18899;50.748;7.102;2024-02-15T02:15:18;12.80;99.90
32446;DHT22;18899;50.748;7.102;2024-02-15T02:17:49;12.80;99.90
32446;DHT22;18899;50.748;7.102;2024-02-15T02:20:14;12.80;99.90
32446;DHT22;18899;50.748;7.102;2024-02-15T02:22:40;12.90;99.90
32446;DHT22;18899;50.748;7.102;2024-02-15T02:25:07;12.90;99.90
32446;DHT22;18899;50.748;7.102;2024-02-15T02:27:36;12.90;99.90
32446;DHT22;18899;50.748;7.102;2024-02-15T02:30:12;13.00;99.90
32446;DHT22;18899;50.748;7.102;2024-02-15T02:32:41;13.00;99.90
32446;DHT22;18899;50.748;7.102;2024-02-15T02:35:06;13.00;99.90
32446;DHT22;18899;50.748;7.102;2024-02-15T02:37:32;13.00;99.90
32446;DHT22;18899;50.748;7.102;2024-02-15T02:40:00;13.00;99.90
32446;DHT22;18899;50.748;7.102;2024-02-15T02:42:26;12.90;99.90
32446;DHT22;18899;50.748;7.102;2024-02-15T02:44:51;13.00;99.90
32446;DHT22;18899;50.748;7.102;2024-02-15T02:47:17;12.90;99.90
32446;DHT22;18899;50.748;7.102;2024-02-15T02:49:42;13.00;99.90
32446;DHT22;18899;50.748;7.102;2024-02-15T02:52:08;13.00;99.90
32446;DHT22;18899;50.748;7.102;2024-02-15T02:54:33;13.00;99.90
32446;DHT22;18899;50.748;7.102;2024-02-15T02:57:00;13.00;99.90
32446;DHT22;18899;50.748;7.102;2024-02-15T02:59:25;13.00;99.90
32446;DHT22;18899;50.748;7.102;2024-02-15T03:01:51;13.00;99.90
32446;DHT22;18899;50.748;7.102;2024-02-15T03:04:16;13.00;99.90
32446;DHT22;18899;50.748;7.102;2024-02-15T03:06:45;13.00;99.90
32446;DHT22;18899;50.748;7.102;2024-02-15T03:09:11;12.90;99.90
32446;DHT22;18899;50.748;7.102;2024-02-15T03:11:39;12.90;99.90
32446;DHT22;18899;50.748;7.102;2024-02-15T03:14:05;12.90;99.90
32446;DHT22;18899;50.748;7.102;2024-02-15T03:16:31;12.90;99.90
32446;DHT22;18899;50.748;7.102;2024-02-15T03:18:57;12.90;99.90
32446;DHT22;18899;50.748;7.102;2024-02-15T03:21:22;12.90;99.90
32446;DHT22;18899;50.748;7.102;2024-02-15T03:23:48;12.80;99.90
32446;DHT22;18899;50.748;7.102;2024-02-15T03:26:13;12.80;99.90
32446;DHT22;18899;50.748;7.102;2024-02-15T03:28:39;12.80;99.90
32446;DHT22;18899;50.748;7.102;2024-02-15T03:31:05;12.70;99.90
32446;DHT22;18899;50.748;7.102;2024-02-15T03:33:30;12.70;99.90
32446;DHT22;18899;50.748;7.102;2024-02-15T03:35:59;12.70;99.90
32446;DHT22;18899;50.748;7.102;2024-02-15T03:38:27;12.60;99.90
32446;DHT22;18899;50.748;7.102;2024-02-15T03:40:55;12.60;99.90
32446;DHT22;18899;50.748;7.102;2024-02-15T03:43:21;12.70;99.90
32446;DHT22;18899;50.748;7.102;2024-02-15T03:45:47;12.80;99.90
32446;DHT22;18899;50.748;7.102;2024-02-15T03:48:13;12.90;99.90
32446;DHT22;18899;50.748;7.102;2024-02-15T03:50:39;12.90;99.90
32446;DHT22;18899;50.748;7.102;2024-02-15T03:53:05;13.00;99.90
32446;DHT22;18899;50.748;7.102;2024-02-15T03:55:31;13.00;99.90
32446;DHT22;18899;50.748;7.102;2024-02-15T03:57:58;12.90;99.90
32446;DHT22;18899;50.748;7.102;2024-02-15T04:00:24;12.90;99.90
32446;DHT22;18899;50.748;7.102;2024-02-15T04:02:50;12.90;99.90
32446;DHT22;18899;50.748;7.102;2024-02-15T04:05:16;12.90;99.90
32446;DHT22;18899;50.748;7.102;2024-02-15T04:07:44;13.00;99.90
32446;DHT22;18899;50.748;7.102;2024-02-15T04:10:10;13.10;99.90
32446;DHT22;18899;50.748;7.102;2024-02-15T04:12:35;13.10;99.90
32446;DHT22;18899;50.748;7.102;2024-02-15T04:15:02;13.00;99.90
32446;DHT22;18899;50.748;7.102;2024-02-15T04:17:37;12.80;99.90
32446;DHT22;18899;50.748;7.102;2024-02-15T04:20:03;12.80;99.90
32446;DHT22;18899;50.748;7.102;2024-02-15T04:22:30;12.80;99.90
32446;DHT22;18899;50.748;7.102;2024-02-15T04:25:07;12.80;99.90
32446;DHT22;18899;50.748;7.102;2024-02-15T04:27:35;12.90;99.90
32446;DHT22;18899;50.748;7.102;2024-02-15T04:30:01;12.90;99.90
32446;DHT22;18899;50.748;7.102;2024-02-15T04:32:27;12.90;99.90
32446;DHT22;18899;50.748;7.102;2024-02-15T04:34:54;12.90;99.90
32446;DHT22;18899;50.748;7.102;2024-02-15T04:37:19;12.90;99.90
32446;DHT22;18899;50.748;7.102;2024-02-15T04:39:46;13.00;99.90
32446;DHT22;18899;50.748;7.102;2024-02-15T04:42:12;13.00;99.90
32446;DHT22;18899;50.748;7.102;2024-02-15T04:44:40;13.00;99.90
32446;DHT22;18899;50.748;7.102;2024-02-15T04:47:06;12.90;99.90
32446;DHT22;18899;50.748;7.102;2024-02-15T04:49:32;12.90;99.90
32446;DHT22;18899;50.748;7.102;2024-02-15T04:51:58;12.90;99.90
32446;DHT22;18899;50.748;7.102;2024-02-15T04:54:24;13.00;99.90
32446;DHT22;18899;50.748;7.102;2024-02-15T04:56:50;13.00;99.90
32446;DHT22;18899;50.748;7.102;2024-02-15T04:59:20;13.00;99.90
32446;DHT22;18899;50.748;7.102;2024-02-15T05:01:46;12.90;99.90
32446;DHT22;18899;50.748;7.102;2024-02-15T05:04:12;12.80;99.90
32446;DHT22;18899;50.748;7.102;2024-02-15T05:06:39;12.80;99.90
32446;DHT22;18899;50.748;7.102;2024-02-15T05:09:05;12.70;99.90
32446;DHT22;18899;50.748;7.102;2024-02-15T05:11:41;12.70;99.90
32446;DHT22;18899;50.748;7.102;2024-02-15T05:14:11;12.70;99.90
32446;DHT22;18899;50.748;7.102;2024-02-15T05:16:37;12.80;99.90
32446;DHT22;18899;50.748;7.102;2024-02-15T05:19:10;12.80;99.90
32446;DHT22;18899;50.748;7.102;2024-02-15T05:21:38;12.90;99.90
32446;DHT22;18899;50.748;7.102;2024-02-15T05:24:07;12.90;99.90
32446;DHT22;18899;50.748;7.102;2024-02-15T05:26:32;12.80;99.90
32446;DHT22;18899;50.748;7.102;2024-02-15T05:28:58;12.90;99.90
32446;DHT22;18899;50.748;7.102;2024-02-15T05:31:24;12.90;99.90
32446;DHT22;18899;50.748;7.102;2024-02-15T05:33:53;12.90;99.90
32446;DHT22;18899;50.748;7.102;2024-02-15T05:36:20;13.00;99.90
32446;DHT22;18899;50.748;7.102;2024-02-15T05:38:53;13.00;99.90
32446;DHT22;18899;50.748;7.102;2024-02-15T05:41:19;12.90;99.90
32446;DHT22;18899;50.748;7.102;2024-02-15T05:43:46;12.90;99.90
32446;DHT22;18899;50.748;7.102;2024-02-15T05:46:14;12.90;99.90
32446;DHT22;18899;50.748;7.102;2024-02-15T05:48:39;12.90;99.90
32446;DHT22;18899;50.748;7.102;2024-02-15T05:51:06;12.90;99.90
32446;DHT22;18899;50.748;7.102;2024-02-15T05:53:33;12.90;99.90
32446;DHT22;18899;50.748;7.102;2024-02-15T05:56:01;12.90;99.90
32446;DHT22;18899;50.748;7.102;2024-02-15T05:58:29;13.00;99.90
32446;DHT22;18899;50.748;7.102;2024-02-15T06:00:55;13.00;99.90
32446;DHT22;18899;50.748;7.102;2024-02-15T06:03:26;13.00;99.90
32446;DHT22;18899;50.748;7.102;2024-02-15T06:05:52;12.90;99.90
32446;DHT22;18899;50.748;7.102;2024-02-15T06:08:23;12.90;99.90
32446;DHT22;18899;50.748;7.102;2024-02-15T06:10:49;12.90;99.90
32446;DHT22;18899;50.748;7.102;2024-02-15T06:13:15;12.90;99.90
32446;DHT22;18899;50.748;7.102;2024-02-15T06:15:41;12.90;99.90
32446;DHT22;18899;50.748;7.102;2024-02-15T06:18:06;12.90;99.90
32446;DHT22;18899;50.748;7.102;2024-02-15T06:20:35;12.80;99.90
32446;DHT22;18899;50.748;7.102;2024-02-15T06:23:02;12.80;99.90
32446;DHT22;18899;50.748;7.102;2024-02-15T06:25:31;12.80;99.90
32446;DHT22;18899;50.748;7.102;2024-02-15T06:27:57;12.80;99.90
32446;DHT22;18899;50.748;7.102;2024-02-15T06:30:28;12.90;99.90
32446;DHT22;18899;50.748;7.102;2024-02-15T06:33:12;12.90;99.90
32446;DHT22;18899;50.748;7.102;2024-02-15T06:35:56;12.90;99.90
32446;DHT22;18899;50.748;7.102;2024-02-15T06:38:40;12.90;99.90
32446;DHT22;18899;50.748;7.102;2024-02-15T06:41:24;12.80;99.90
32446;DHT22;18899;50.748;7.102;2024-02-15T06:43:50;12.90;99.90
32446;DHT22;18899;50.748;7.102;2024-02-15T06:46:16;12.90;99.90
32446;DHT22;18899;50.748;7.102;2024-02-15T06:48:44;13.00;99.90
32446;DHT22;18899;50.748;7.102;2024-02-15T06:51:12;13.00;99.90
32446;DHT22;18899;50.748;7.102;2024-02-15T06:53:39;13.10;99.90
32446;DHT22;18899;50.748;7.102;2024-02-15T06:56:05;13.10;99.90
32446;DHT22;18899;50.748;7.102;2024-02-15T06:58:31;13.10;99.90
32446;DHT22;18899;50.748;7.102;2024-02-15T07:00:56;13.10;99.90
32446;DHT22;18899;50.748;7.102;2024-02-15T07:03:22;13.20;99.90
32446;DHT22;18899;50.748;7.102;2024-02-15T07:05:49;13.20;99.90
32446;DHT22;18899;50.748;7.102;2024-02-15T07:08:15;13.20;99.90
32446;DHT22;18899;50.748;7.102;2024-02-15T07:10:40;13.20;99.90
32446;DHT22;18899;50.748;7.102;2024-02-15T07:13:06;13.10;99.90
32446;DHT22;18899;50.748;7.102;2024-02-15T07:15:33;13.10;99.90
32446;DHT22;18899;50.748;7.102;2024-02-15T07:18:04;13.10;99.90
32446;DHT22;18899;50.748;7.102;2024-02-15T07:20:31;13.10;99.90
32446;DHT22;18899;50.748;7.102;2024-02-15T07:22:57;13.10;99.90
32446;DHT22;18899;50.748;7.102;2024-02-15T07:25:23;13.10;99.90
32446;DHT22;18899;50.748;7.102;2024-02-15T07:27:49;13.10;99.90
32446;DHT22;18899;50.748;7.102;2024-02-15T07:30:14;13.10;99.90
32446;DHT22;18899;50.748;7.102;2024-02-15T07:32:40;13.20;99.90
32446;DHT22;18899;50.748;7.102;2024-02-15T07:35:06;13.10;99.90
32446;DHT22;18899;50.748;7.102;2024-02-15T07:37:33;13.10;99.90
32446;DHT22;18899;50.748;7.102;2024-02-15T07:39:59;13.10;99.90
32446;DHT22;18899;50.748;7.102;2024-02-15T07:42:24;13.10;99.90
32446;DHT22;18899;50.748;7.102;2024-02-15T07:44:51;13.10;99.90
32446;DHT22;18899;50.748;7.102;2024-02-15T07:47:18;13.10;99.90
32446;DHT22;18899;50.748;7.102;2024-02-15T07:49:46;13.20;99.90
32446;DHT22;18899;50.748;7.102;2024-02-15T07:52:12;13.10;99.90
32446;DHT22;18899;50.748;7.102;2024-02-15T07:54:39;13.20;99.90
32446;DHT22;18899;50.748;7.102;2024-02-15T07:57:04;13.10;99.90
32446;DHT22;18899;50.748;7.102;2024-02-15T07:59:30;13.10;99.90
32446;DHT22;18899;50.748;7.102;2024-02-15T08:01:56;13.10;99.90
32446;DHT22;18899;50.748;7.102;2024-02-15T08:04:21;13.10;99.90
32446;DHT22;18899;50.748;7.102;2024-02-15T08:06:48;13.10;99.90
32446;DHT22;18899;50.748;7.102;2024-02-15T08:09:15;13.10;99.90
32446;DHT22;18899;50.748;7.102;2024-02-15T08:11:43;13.10;99.90
32446;DHT22;18899;50.748;7.102;2024-02-15T08:14:09;13.20;99.90
32446;DHT22;18899;50.748;7.102;2024-02-15T08:16:36;13.30;99.90
32446;DHT22;18899;50.748;7.102;2024-02-15T08:19:03;13.40;99.90
32446;DHT22;18899;50.748;7.102;2024-02-15T08:21:31;13.50;99.90
32446;DHT22;18899;50.748;7.102;2024-02-15T08:24:02;13.50;99.90
32446;DHT22;18899;50.748;7.102;2024-02-15T08:26:37;13.50;99.90
32446;DHT22;18899;50.748;7.102;2024-02-15T08:29:07;13.60;99.90
32446;DHT22;18899;50.748;7.102;2024-02-15T08:31:32;13.50;99.90
32446;DHT22;18899;50.748;7.102;2024-02-15T08:34:02;13.60;99.90
32446;DHT22;18899;50.748;7.102;2024-02-15T08:36:29;13.70;99.90
32446;DHT22;18899;50.748;7.102;2024-02-15T08:38:55;13.70;99.90
32446;DHT22;18899;50.748;7.102;2024-02-15T08:41:21;13.70;99.90
32446;DHT22;18899;50.748;7.102;2024-02-15T08:43:48;13.80;99.90
32446;DHT22;18899;50.748;7.102;2024-02-15T08:46:14;13.80;99.90
32446;DHT22;18899;50.748;7.102;2024-02-15T08:48:40;13.80;99.90
32446;DHT22;18899;50.748;7.102;2024-02-15T08:51:06;13.80;99.90
32446;DHT22;18899;50.748;7.102;2024-02-15T08:53:34;13.90;99.90
32446;DHT22;18899;50.748;7.102;2024-02-15T08:56:02;14.00;99.90
32446;DHT22;18899;50.748;7.102;2024-02-15T08:58:28;14.00;99.90
32446;DHT22;18899;50.748;7.102;2024-02-15T09:00:55;14.10;99.90
32446;DHT22;18899;50.748;7.102;2024-02-15T09:03:21;14.20;99.90
32446;DHT22;18899;50.748;7.102;2024-02-15T09:05:47;14.20;99.90
32446;DHT22;18899;50.748;7.102;2024-02-15T09:08:13;14.30;99.90
32446;DHT22;18899;50.748;7.102;2024-02-15T09:10:41;14.30;99.90
32446;DHT22;18899;50.748;7.102;2024-02-15T09:13:08;14.40;99.90
32446;DHT22;18899;50.748;7.102;2024-02-15T09:15:33;14.50;99.90
32446;DHT22;18899;50.748;7.102;2024-02-15T09:17:59;14.60;99.90
32446;DHT22;18899;50.748;7.102;2024-02-15T09:20:25;14.70;99.90
32446;DHT22;18899;50.748;7.102;2024-02-15T09:22:54;14.80;99.90
32446;DHT22;18899;50.748;7.102;2024-02-15T09:25:22;14.90;99.90
32446;DHT22;18899;50.748;7.102;2024-02-15T09:27:51;15.10;99.90
32446;DHT22;18899;50.748;7.102;2024-02-15T09:30:17;15.10;99.90
32446;DHT22;18899;50.748;7.102;2024-02-15T09:32:44;15.30;99.90
32446;DHT22;18899;50.748;7.102;2024-02-15T09:35:10;15.40;99.90
32446;DHT22;18899;50.748;7.102;2024-02-15T09:37:38;15.50;99.90
32446;DHT22;18899;50.748;7.102;2024-02-15T09:40:08;15.60;99.90
32446;DHT22;18899;50.748;7.102;2024-02-15T09:42:35;15.60;99.90
32446;DHT22;18899;50.748;7.102;2024-02-15T09:45:02;15.70;99.90
32446;DHT22;18899;50.748;7.102;2024-02-15T09:47:37;15.80;99.90
32446;DHT22;18899;50.748;7.102;2024-02-15T09:50:08;15.90;99.90
32446;DHT22;18899;50.748;7.102;2024-02-15T09:52:38;16.10;99.90
32446;DHT22;18899;50.748;7.102;2024-02-15T09:55:07;16.30;99.90
32446;DHT22;18899;50.748;7.102;2024-02-15T09:57:35;16.50;99.90
32446;DHT22;18899;50.748;7.102;2024-02-15T10:00:01;16.80;99.90
32446;DHT22;18899;50.748;7.102;2024-02-15T10:02:29;17.10;99.90
32446;DHT22;18899;50.748;7.102;2024-02-15T10:04:57;17.40;99.90
32446;DHT22;18899;50.748;7.102;2024-02-15T10:07:25;17.60;99.90
32446;DHT22;18899;50.748;7.102;2024-02-15T10:09:52;17.70;99.90
32446;DHT22;18899;50.748;7.102;2024-02-15T10:12:18;17.80;99.90
32446;DHT22;18899;50.748;7.102;2024-02-15T10:14:51;18.00;99.90
32446;DHT22;18899;50.748;7.102;2024-02-15T10:17:20;18.00;99.90
32446;DHT22;18899;50.748;7.102;2024-02-15T10:20:02;18.00;99.90
32446;DHT22;18899;50.748;7.102;2024-02-15T10:22:28;17.80;99.90
32446;DHT22;18899;50.748;7.102;2024-02-15T10:25:13;17.60;99.90
32446;DHT22;18899;50.748;7.102;2024-02-15T10:27:42;17.50;99.90
32446;DHT22;18899;50.748;7.102;2024-02-15T10:30:20;17.50;99.90
32446;DHT22;18899;50.748;7.102;2024-02-15T10:32:46;17.40;99.90
32446;DHT22;18899;50.748;7.102;2024-02-15T10:35:20;17.40;99.90
32446;DHT22;18899;50.748;7.102;2024-02-15T10:37:50;17.40;99.90
32446;DHT22;18899;50.748;7.102;2024-02-15T10:40:19;17.40;99.90
32446;DHT22;18899;50.748;7.102;2024-02-15T10:42:47;17.40;99.90
32446;DHT22;18899;50.748;7.102;2024-02-15T10:45:15;17.30;99.90
32446;DHT22;18899;50.748;7.102;2024-02-15T10:47:44;17.20;99.90
32446;DHT22;18899;50.748;7.102;2024-02-15T10:50:09;17.20;99.90
32446;DHT22;18899;50.748;7.102;2024-02-15T10:52:37;17.10;99.90
32446;DHT22;18899;50.748;7.102;2024-02-15T10:55:09;17.10;99.90
32446;DHT22;18899;50.748;7.102;2024-02-15T10:57:42;17.20;99.90
32446;DHT22;18899;50.748;7.102;2024-02-15T11:00:10;17.20;99.90
32446;DHT22;18899;50.748;7.102;2024-02-15T11:03:01;17.30;99.90
32446;DHT22;18899;50.748;7.102;2024-02-15T11:05:32;17.40;99.90
32446;DHT22;18899;50.748;7.102;2024-02-15T11:08:06;17.50;99.90
32446;DHT22;18899;50.748;7.102;2024-02-15T11:10:35;17.50;99.90
32446;DHT22;18899;50.748;7.102;2024-02-15T11:13:01;17.60;99.90
32446;DHT22;18899;50.748;7.102;2024-02-15T11:15:45;17.60;99.90
32446;DHT22;18899;50.748;7.102;2024-02-15T11:18:47;17.60;99.90
32446;DHT22;18899;50.748;7.102;2024-02-15T11:21:17;17.70;99.90
32446;DHT22;18899;50.748;7.102;2024-02-15T11:23:44;17.70;99.90
32446;DHT22;18899;50.748;7.102;2024-02-15T11:26:45;17.70;99.90
32446;DHT22;18899;50.748;7.102;2024-02-15T11:32:52;17.80;99.90
32446;DHT22;18899;50.748;7.102;2024-02-15T11:40:24;17.80;99.90
32446;DHT22;18899;50.748;7.102;2024-02-15T11:42:53;17.80;99.90
32446;DHT22;18899;50.748;7.102;2024-02-15T11:45:19;17.80;99.90
32446;DHT22;18899;50.748;7.102;2024-02-15T11:47:50;17.80;99.90
32446;DHT22;18899;50.748;7.102;2024-02-15T11:50:20;17.80;99.90
32446;DHT22;18899;50.748;7.102;2024-02-15T11:52:50;17.80;99.90
32446;DHT22;18899;50.748;7.102;2024-02-15T11:55:20;17.80;99.90
32446;DHT22;18899;50.748;7.102;2024-02-15T11:57:59;17.80;99.90
32446;DHT22;18899;50.748;7.102;2024-02-15T12:00:34;17.90;99.90
32446;DHT22;18899;50.748;7.102;2024-02-15T12:03:19;18.00;99.90
32446;DHT22;18899;50.748;7.102;2024-02-15T12:06:04;18.00;99.90
32446;DHT22;18899;50.748;7.102;2024-02-15T12:08:49;18.10;99.90
32446;DHT22;18899;50.748;7.102;2024-02-15T12:11:34;18.10;99.90
32446;DHT22;18899;50.748;7.102;2024-02-15T12:14:19;18.00;99.90
32446;DHT22;18899;50.748;7.102;2024-02-15T12:17:04;18.00;99.90
32446;DHT22;18899;50.748;7.102;2024-02-15T12:19:49;18.10;99.90
32446;DHT22;18899;50.748;7.102;2024-02-15T12:22:21;18.00;99.90
32446;DHT22;18899;50.748;7.102;2024-02-15T12:25:01;18.00;99.90
32446;DHT22;18899;50.748;7.102;2024-02-15T12:27:31;18.00;99.90
32446;DHT22;18899;50.748;7.102;2024-02-15T12:29:57;17.90;99.90
32446;DHT22;18899;50.748;7.102;2024-02-15T12:32:24;17.90;99.90
32446;DHT22;18899;50.748;7.102;2024-02-15T12:35:09;18.00;99.90
32446;DHT22;18899;50.748;7.102;2024-02-15T12:37:35;18.00;99.90
32446;DHT22;18899;50.748;7.102;2024-02-15T12:40:13;18.10;99.90
32446;DHT22;18899;50.748;7.102;2024-02-15T12:42:46;18.30;99.90
32446;DHT22;18899;50.748;7.102;2024-02-15T12:45:19;18.30;99.90
32446;DHT22;18899;50.748;7.102;2024-02-15T12:47:47;18.40;99.90
32446;DHT22;18899;50.748;7.102;2024-02-15T12:50:19;18.50;99.90
32446;DHT22;18899;50.748;7.102;2024-02-15T12:52:48;18.60;99.90
32446;DHT22;18899;50.748;7.102;2024-02-15T12:55:15;18.60;99.90
32446;DHT22;18899;50.748;7.102;2024-02-15T12:57:43;18.80;99.90
32446;DHT22;18899;50.748;7.102;2024-02-15T13:00:13;18.80;99.90
32446;DHT22;18899;50.748;7.102;2024-02-15T13:02:44;18.70;99.90
32446;DHT22;18899;50.748;7.102;2024-02-15T13:05:10;18.70;99.90
32446;DHT22;18899;50.748;7.102;2024-02-15T13:07:37;18.80;99.90
32446;DHT22;18899;50.748;7.102;2024-02-15T13:10:04;18.60;99.90
32446;DHT22;18899;50.748;7.102;2024-02-15T13:12:33;18.50;99.90
32446;DHT22;18899;50.748;7.102;2024-02-15T13:15:01;18.50;99.90
32446;DHT22;18899;50.748;7.102;2024-02-15T13:17:29;18.50;99.90
32446;DHT22;18899;50.748;7.102;2024-02-15T13:19:54;18.50;99.90
32446;DHT22;18899;50.748;7.102;2024-02-15T13:22:28;18.50;99.90
32446;DHT22;18899;50.748;7.102;2024-02-15T13:24:53;18.50;99.90
32446;DHT22;18899;50.748;7.102;2024-02-15T13:27:20;18.50;99.90
32446;DHT22;18899;50.748;7.102;2024-02-15T13:29:48;18.40;99.90
32446;DHT22;18899;50.748;7.102;2024-02-15T13:32:14;18.30;99.90
32446;DHT22;18899;50.748;7.102;2024-02-15T13:34:42;18.30;99.90
32446;DHT22;18899;50.748;7.102;2024-02-15T13:37:08;18.20;99.90
32446;DHT22;18899;50.748;7.102;2024-02-15T13:39:33;18.20;99.90
32446;DHT22;18899;50.748;7.102;2024-02-15T13:42:00;18.10;99.90
32446;DHT22;18899;50.748;7.102;2024-02-15T13:44:26;18.00;99.90
32446;DHT22;18899;50.748;7.102;2024-02-15T13:46:52;17.90;99.90
32446;DHT22;18899;50.748;7.102;2024-02-15T13:49:21;17.90;99.90
32446;DHT22;18899;50.748;7.102;2024-02-15T13:51:46;17.90;99.90
32446;DHT22;18899;50.748;7.102;2024-02-15T13:54:12;17.80;99.90
32446;DHT22;18899;50.748;7.102;2024-02-15T13:56:38;17.70;99.90
32446;DHT22;18899;50.748;7.102;2024-02-15T13:59:05;17.70;99.90
32446;DHT22;18899;50.748;7.102;2024-02-15T14:01:31;17.70;99.90
32446;DHT22;18899;50.748;7.102;2024-02-15T14:03:56;17.70;99.90
32446;DHT22;18899;50.748;7.102;2024-02-15T14:06:22;17.70;99.90
32446;DHT22;18899;50.748;7.102;2024-02-15T14:08:47;17.70;99.90
32446;DHT22;18899;50.748;7.102;2024-02-15T14:11:13;17.80;99.90
32446;DHT22;18899;50.748;7.102;2024-02-15T14:13:40;17.70;99.90
32446;DHT22;18899;50.748;7.102;2024-02-15T14:16:06;17.70;99.90
32446;DHT22;18899;50.748;7.102;2024-02-15T14:18:33;17.70;99.90
32446;DHT22;18899;50.748;7.102;2024-02-15T14:21:00;17.70;99.90
32446;DHT22;18899;50.748;7.102;2024-02-15T14:23:26;17.70;99.90
32446;DHT22;18899;50.748;7.102;2024-02-15T14:25:53;17.60;99.90
32446;DHT22;18899;50.748;7.102;2024-02-15T14:28:19;17.70;99.90
32446;DHT22;18899;50.748;7.102;2024-02-15T14:30:45;17.70;99.90
32446;DHT22;18899;50.748;7.102;2024-02-15T14:33:29;17.70;99.90
32446;DHT22;18899;50.748;7.102;2024-02-15T14:35:55;17.80;99.90
32446;DHT22;18899;50.748;7.102;2024-02-15T14:38:21;17.70;99.90
32446;DHT22;18899;50.748;7.102;2024-02-15T14:40:49;17.70;99.90
32446;DHT22;18899;50.748;7.102;2024-02-15T14:43:19;17.70;99.90
32446;DHT22;18899;50.748;7.102;2024-02-15T14:45:46;17.60;99.90
32446;DHT22;18899;50.748;7.102;2024-02-15T14:48:13;17.60;99.90
32446;DHT22;18899;50.748;7.102;2024-02-15T14:50:39;17.60;99.90
32446;DHT22;18899;50.748;7.102;2024-02-15T14:53:05;17.50;99.90
32446;DHT22;18899;50.748;7.102;2024-02-15T14:55:33;17.50;99.90
32446;DHT22;18899;50.748;7.102;2024-02-15T14:57:59;17.40;99.90
32446;DHT22;18899;50.748;7.102;2024-02-15T15:00:24;17.50;99.90
32446;DHT22;18899;50.748;7.102;2024-02-15T15:02:52;17.50;99.90
32446;DHT22;18899;50.748;7.102;2024-02-15T15:05:18;17.50;99.90
32446;DHT22;18899;50.748;7.102;2024-02-15T15:08:02;17.30;99.90
32446;DHT22;18899;50.748;7.102;2024-02-15T15:10:48;17.20;99.90
32446;DHT22;18899;50.748;7.102;2024-02-15T15:13:33;17.20;99.90
32446;DHT22;18899;50.748;7.102;2024-02-15T15:15:59;17.10;99.90
32446;DHT22;18899;50.748;7.102;2024-02-15T15:18:25;17.10;99.90
32446;DHT22;18899;50.748;7.102;2024-02-15T15:20:51;17.10;99.90
32446;DHT22;18899;50.748;7.102;2024-02-15T15:23:17;17.10;99.90
32446;DHT22;18899;50.748;7.102;2024-02-15T15:25:42;17.00;99.90
32446;DHT22;18899;50.748;7.102;2024-02-15T15:28:09;17.00;99.90
32446;DHT22;18899;50.748;7.102;2024-02-15T15:30:35;16.90;99.90
32446;DHT22;18899;50.748;7.102;2024-02-15T15:33:01;16.80;99.90
32446;DHT22;18899;50.748;7.102;2024-02-15T15:35:28;16.80;99.90
32446;DHT22;18899;50.748;7.102;2024-02-15T15:37:57;16.80;99.90
32446;DHT22;18899;50.748;7.102;2024-02-15T15:40:23;16.80;99.90
32446;DHT22;18899;50.748;7.102;2024-02-15T15:42:49;16.80;99.90
32446;DHT22;18899;50.748;7.102;2024-02-15T15:45:15;16.80;99.90